Time;durP1;ratioP1;P1;durP2;ratioP2;P2;SDS_P1;SDS_P2;PMS_P1;PMS_P2;Temp;Humidity;BMP_temperature;BMP_pressure;BME280_temperature;BME280_humidity;BME280_pressure;Samples;Min_cycle;Max_cycle;Signal;HPM_P1;HPM_P2
2024/02/08 00:02:07;;;;;;;;;;;;;;;15.46;45.24;100096.25;4902031;29;953;-50
2024/02/08 00:04:34;;;;;;;;;;;;;;;16.89;42.21;100103.31;4895597;29;2001;-52
2024/02/08 00:07:00;;;;;;;;;;;;;;;17.08;41.84;100114.19;4894705;29;1050;-51
2024/02/08 00:09:26;;;;;;;;;;;;;;;16.25;43.22;100113.88;4902922;29;1074;-50
2024/02/08 00:11:51;;;;;;;;;;;;;;;15.88;44.21;100115.00;4903123;29;1115;-48
2024/02/08 00:14:17;;;;;;;;;;;;;;;15.67;44.76;100117.56;4895316;29;1922;-49
2024/02/08 00:16:43;;;;;;;;;;;;;;;15.49;45.03;100119.88;4903154;29;1006;-51
2024/02/08 00:19:08;;;;;;;;;;;;;;;16.76;42.58;100119.47;4898482;29;1190;-50
2024/02/08 00:21:35;;;;;;;;;;;;;;;16.91;42.13;100127.09;4894577;29;1123;-50
2024/02/08 00:24:01;;;;;;;;;;;;;;;16.13;43.58;100118.34;4903130;29;1085;-50
2024/02/08 00:26:27;;;;;;;;;;;;;;;15.84;44.24;100131.28;4890440;29;851;-47
2024/02/08 00:28:52;;;;;;;;;;;;;;;15.59;44.86;100125.28;4896387;29;1071;-49
2024/02/08 00:31:19;;;;;;;;;;;;;;;15.43;45.18;100126.50;4894650;29;1042;-51
2024/02/08 00:33:46;;;;;;;;;;;;;;;16.22;43.68;100122.06;4897935;29;2112;-52
2024/02/08 00:36:15;;;;;;;;;;;;;;;17.40;41.26;100125.72;4883567;29;1007;-46
2024/02/08 00:38:42;;;;;;;;;;;;;;;16.53;42.86;100134.66;4883941;29;1237;-50
2024/02/08 00:41:08;;;;;;;;;;;;;;;16.03;43.82;100123.56;4895923;29;1053;-49
2024/02/08 00:43:34;;;;;;;;;;;;;;;15.72;44.69;100127.81;4890226;29;1097;-48
2024/02/08 00:46:02;;;;;;;;;;;;;;;15.56;44.76;100129.03;4902668;29;1131;-52
2024/02/08 00:48:28;;;;;;;;;;;;;;;15.46;45.26;100123.63;4902160;29;1063;-48
2024/02/08 00:50:54;;;;;;;;;;;;;;;16.23;43.81;100117.63;4900618;29;902;-46
2024/02/08 00:53:20;;;;;;;;;;;;;;;17.40;41.22;100121.22;4883711;29;1906;-48
2024/02/08 00:55:46;;;;;;;;;;;;;;;16.60;42.46;100121.72;4895971;29;1166;-49
2024/02/08 00:58:15;;;;;;;;;;;;;;;16.07;44.00;100120.66;4900928;29;1083;-49
2024/02/08 01:00:41;;;;;;;;;;;;;;;15.78;44.20;100122.84;4889903;29;1011;-49
2024/02/08 01:03:07;;;;;;;;;;;;;;;15.60;44.73;100119.84;4892048;29;1130;-52
2024/02/08 01:05:33;;;;;;;;;;;;;;;15.63;45.28;100118.78;4898755;29;2356;-47
2024/02/08 01:08:00;;;;;;;;;;;;;;;17.14;41.67;100126.97;4900497;29;1066;-48
2024/02/08 01:10:26;;;;;;;;;;;;;;;16.99;41.80;100124.63;4890011;29;1086;-49
2024/02/08 01:12:53;;;;;;;;;;;;;;;16.27;43.42;100124.34;4901141;29;1906;-50
2024/02/08 01:15:19;;;;;;;;;;;;;;;15.90;44.11;100125.47;4897730;29;903;-48
2024/02/08 01:17:45;;;;;;;;;;;;;;;15.72;44.49;100128.66;4901179;29;1111;-50
2024/02/08 01:20:11;;;;;;;;;;;;;;;15.57;45.00;100127.22;4901748;29;1106;-50
2024/02/08 01:22:36;;;;;;;;;;;;;;;15.88;44.50;100136.22;4889923;29;1019;-47
2024/02/08 01:25:02;;;;;;;;;;;;;;;17.29;41.41;100134.59;4898010;29;1194;-51
2024/02/08 01:27:29;;;;;;;;;;;;;;;16.74;42.19;100137.34;4884752;29;1126;-50
2024/02/08 01:29:59;;;;;;;;;;;;;;;16.18;43.37;100141.03;4883385;29;1139;-50
2024/02/08 01:32:27;;;;;;;;;;;;;;;15.86;44.54;100140.81;4888659;29;1910;-48
2024/02/08 01:34:55;;;;;;;;;;;;;;;15.70;44.49;100127.09;4891109;29;2013;-48
2024/02/08 01:37:21;;;;;;;;;;;;;;;16.00;44.11;100128.28;4901614;29;1161;-49
2024/02/08 01:39:46;;;;;;;;;;;;;;;17.41;41.10;100122.06;4895989;29;882;-47
2024/02/08 01:42:13;;;;;;;;;;;;;;;16.68;42.28;100124.56;4889519;29;1162;-49
2024/02/08 01:44:47;;;;;;;;;;;;;;;16.09;43.93;100124.03;4887392;29;1024;-50
2024/02/08 01:47:13;;;;;;;;;;;;;;;15.84;44.22;100132.16;4915801;29;1016;-51
2024/02/08 01:49:39;;;;;;;;;;;;;;;15.63;44.75;100129.41;4898266;29;1222;-49
2024/02/08 01:52:05;;;;;;;;;;;;;;;15.48;45.23;100132.25;4904591;29;999;-51
2024/02/08 01:54:30;;;;;;;;;;;;;;;16.88;42.27;100136.16;4898983;29;1939;-48
2024/02/08 01:56:59;;;;;;;;;;;;;;;17.12;41.49;100131.56;4890627;29;1067;-46
2024/02/08 01:59:26;;;;;;;;;;;;;;;16.29;43.24;100130.38;4901280;29;1210;-46
2024/02/08 02:01:54;;;;;;;;;;;;;;;15.98;43.88;100127.53;4899261;29;1190;-49
2024/02/08 02:04:20;;;;;;;;;;;;;;;15.70;44.64;100122.63;4911354;29;2194;-48
2024/02/08 02:06:46;;;;;;;;;;;;;;;15.57;45.23;100127.22;4901211;29;1110;-52
2024/02/08 02:09:27;;;;;;;;;;;;;;;16.04;44.45;100129.72;4900883;29;1108;-51
2024/02/08 02:11:53;;;;;;;;;;;;;;;17.47;40.93;100129.50;4889211;29;1079;-51
2024/02/08 02:14:18;;;;;;;;;;;;;;;16.55;42.90;100138.00;4886136;29;1919;-51
2024/02/08 02:16:44;;;;;;;;;;;;;;;16.06;43.67;100138.41;4900593;29;1011;-49
2024/02/08 02:19:09;;;;;;;;;;;;;;;15.87;44.48;100126.59;4900515;29;1070;-51
2024/02/08 02:21:35;;;;;;;;;;;;;;;15.60;45.01;100130.47;4900770;29;1055;-53
2024/02/08 02:24:01;;;;;;;;;;;;;;;15.55;45.08;100136.13;4900376;29;1011;-49
2024/02/08 02:26:27;;;;;;;;;;;;;;;16.92;42.35;100134.09;4909308;29;1043;-49
2024/02/08 02:28:53;;;;;;;;;;;;;;;16.94;41.83;100140.13;4888472;29;967;-48
2024/02/08 02:31:19;;;;;;;;;;;;;;;16.22;43.58;100130.03;4900866;29;1110;-50
2024/02/08 02:33:46;;;;;;;;;;;;;;;15.82;44.31;100134.06;4913776;29;2013;-50
2024/02/08 02:36:14;;;;;;;;;;;;;;;15.64;44.83;100125.78;4882034;29;1104;-52
2024/02/08 02:38:41;;;;;;;;;;;;;;;15.57;45.42;100128.06;4897574;29;1095;-51
2024/02/08 02:41:07;;;;;;;;;;;;;;;17.03;41.98;100133.19;4915039;29;1099;-49
2024/02/08 02:43:36;;;;;;;;;;;;;;;16.69;42.54;100134.22;4896311;29;1111;-48
2024/02/08 02:46:02;;;;;;;;;;;;;;;16.10;43.86;100141.66;4896835;29;1107;-54
2024/02/08 02:48:27;;;;;;;;;;;;;;;15.81;44.38;100137.69;4904294;29;1217;-50
2024/02/08 02:50:53;;;;;;;;;;;;;;;15.64;44.77;100153.13;4892477;29;1129;-51
2024/02/08 02:53:19;;;;;;;;;;;;;;;15.47;45.56;100150.94;4903521;29;1914;-52
2024/02/08 02:55:44;;;;;;;;;;;;;;;16.91;42.31;100153.66;4904130;29;1030;-50
2024/02/08 02:58:12;;;;;;;;;;;;;;;17.10;41.44;100152.16;4903924;29;1146;-50
2024/02/08 03:00:40;;;;;;;;;;;;;;;16.33;43.36;100154.88;4904272;29;1123;-48
2024/02/08 03:03:12;;;;;;;;;;;;;;;15.90;44.08;100159.97;4902086;29;1078;-47
2024/02/08 03:05:46;;;;;;;;;;;;;;;15.74;44.79;100158.56;4900995;29;2246;-48
2024/02/08 03:08:11;;;;;;;;;;;;;;;15.59;45.22;100162.41;4892668;29;1189;-49
2024/02/08 03:10:42;;;;;;;;;;;;;;;16.93;42.34;100170.31;4903970;29;1109;-47
2024/02/08 03:13:10;;;;;;;;;;;;;;;17.04;41.73;100171.22;4902838;29;1914;-47
2024/02/08 03:15:39;;;;;;;;;;;;;;;16.26;43.53;100168.66;4894742;29;1030;-47
2024/02/08 03:18:04;;;;;;;;;;;;;;;15.97;44.33;100168.28;4903600;29;1101;-50
2024/02/08 03:20:30;;;;;;;;;;;;;;;15.73;44.58;100169.28;4904087;29;1126;-50
2024/02/08 03:22:59;;;;;;;;;;;;;;;15.50;45.18;100163.94;4903581;29;1187;-47
2024/02/08 03:25:25;;;;;;;;;;;;;;;16.73;42.63;100167.50;4903011;29;1089;-48
2024/02/08 03:27:51;;;;;;;;;;;;;;;17.38;41.09;100165.72;4900989;29;883;-51
2024/02/08 03:30:20;;;;;;;;;;;;;;;16.44;43.25;100172.56;4891184;29;1030;-48
2024/02/08 03:32:49;;;;;;;;;;;;;;;16.03;44.15;100173.16;4903786;29;1907;-48
2024/02/08 03:35:32;;;;;;;;;;;;;;;15.77;44.56;100174.22;4895050;29;2083;-50
2024/02/08 03:38:00;;;;;;;;;;;;;;;15.65;45.08;100175.16;4890825;29;1026;-45
2024/02/08 03:40:29;;;;;;;;;;;;;;;16.02;44.44;100172.31;4903668;29;937;-49
2024/02/08 03:42:54;;;;;;;;;;;;;;;17.38;41.40;100174.53;4903416;29;1115;-50
2024/02/08 03:45:29;;;;;;;;;;;;;;;16.67;42.67;100169.81;4902333;29;1050;-50
2024/02/08 03:47:59;;;;;;;;;;;;;;;16.05;44.04;100170.38;4903477;29;1066;-49
2024/02/08 03:50:29;;;;;;;;;;;;;;;15.83;44.37;100175.53;4903570;29;1464;-48
2024/02/08 03:52:55;;;;;;;;;;;;;;;15.57;44.87;100175.78;4899948;29;1903;-50
2024/02/08 03:55:26;;;;;;;;;;;;;;;15.39;45.60;100175.41;4902787;29;1101;-51
2024/02/08 03:58:07;;;;;;;;;;;;;;;15.88;44.57;100169.88;4903081;29;1245;-47
2024/02/08 04:00:33;;;;;;;;;;;;;;;17.36;41.44;100173.84;4903075;29;1103;-47
2024/02/08 04:03:01;;;;;;;;;;;;;;;16.52;42.74;100173.63;4886978;29;1070;-47
2024/02/08 04:09:05;;;;;;;;;;;;;;;15.74;44.47;100171.81;4884212;29;976;-50
2024/02/08 04:55:15;;;;;;;;;;;;;;;15.63;45.12;100188.53;4865520;29;1041;-53
2024/02/08 04:57:41;;;;;;;;;;;;;;;15.54;45.01;100198.09;4895807;29;1151;-55
2024/02/08 05:00:12;;;;;;;;;;;;;;;16.98;42.40;100192.00;4883776;29;1023;-51
2024/02/08 05:02:38;;;;;;;;;;;;;;;17.29;40.69;100198.41;4897807;29;1214;-52
2024/02/08 05:05:07;;;;;;;;;;;;;;;16.31;43.37;100189.50;4897376;29;2735;-51
2024/02/08 05:07:32;;;;;;;;;;;;;;;15.96;44.26;100188.69;4886975;29;1148;-51
2024/02/08 05:09:58;;;;;;;;;;;;;;;15.70;44.61;100178.31;4891717;29;1118;-50
2024/02/08 05:12:24;;;;;;;;;;;;;;;15.51;45.50;100184.22;4901606;29;1900;-48
2024/02/08 05:14:50;;;;;;;;;;;;;;;16.25;43.83;100187.31;4893468;29;1106;-52
2024/02/08 05:17:15;;;;;;;;;;;;;;;17.46;41.11;100189.84;4896911;29;936;-50
2024/02/08 05:19:43;;;;;;;;;;;;;;;16.65;42.30;100194.69;4891306;29;1034;-50
2024/02/08 05:22:11;;;;;;;;;;;;;;;15.91;44.95;100186.38;4893672;29;1121;-51
2024/02/08 05:24:37;;;;;;;;;;;;;;;17.92;40.27;100183.28;4901465;29;1097;-45
2024/02/08 05:27:03;;;;;;;;;;;;;;;16.11;43.83;100188.44;4889086;29;1079;-51
2024/02/08 05:29:28;;;;;;;;;;;;;;;16.51;43.60;100198.50;4892910;29;892;-48
2024/02/08 05:31:54;;;;;;;;;;;;;;;17.17;41.62;100187.84;4882842;29;1090;-48
2024/02/08 05:34:21;;;;;;;;;;;;;;;15.90;44.40;100190.00;4885610;29;2490;-50
2024/02/08 05:36:48;;;;;;;;;;;;;;;15.59;44.91;100188.91;4895310;29;1046;-52
2024/02/08 05:39:23;;;;;;;;;;;;;;;17.63;41.02;100190.22;4891764;29;1102;-50
2024/02/08 05:41:53;;;;;;;;;;;;;;;16.00;44.06;100183.97;4895402;29;1071;-44
2024/02/08 05:44:20;;;;;;;;;;;;;;;15.49;45.03;100187.00;4893469;29;1018;-46
2024/02/08 05:46:47;;;;;;;;;;;;;;;17.56;41.65;100189.03;4900993;29;1089;-49
2024/02/08 05:49:13;;;;;;;;;;;;;;;16.06;44.03;100191.47;4901288;29;1162;-46
2024/02/08 05:52:05;;;;;;;;;;;;;;;16.75;43.45;100189.47;4900060;29;1129;-49
2024/02/08 05:54:31;;;;;;;;;;;;;;;16.69;42.83;100203.25;4900904;29;1995;-46
2024/02/08 05:57:03;;;;;;;;;;;;;;;15.81;44.33;100196.03;4891479;29;1114;-50
2024/02/08 05:59:31;;;;;;;;;;;;;;;16.80;43.27;100199.72;4900951;29;1070;-47
2024/02/08 06:01:58;;;;;;;;;;;;;;;16.63;43.22;100201.94;4891657;29;1225;-46
2024/02/08 06:04:25;;;;;;;;;;;;;;;15.92;44.36;100203.13;4891738;29;2444;-45
2024/02/08 06:07:05;;;;;;;;;;;;;;;15.58;44.33;100200.50;4891809;29;1062;-50
2024/02/08 06:09:55;;;;;;;;;;;;;;;16.99;42.52;100207.00;4888389;29;1185;-46
2024/02/08 06:15:32;;;;;;;;;;;;;;;15.49;44.65;100212.66;4898723;29;1305;-46
2024/02/08 06:18:04;;;;;;;;;;;;;;;17.46;41.84;100216.44;4900251;29;1543;-51
2024/02/08 06:20:43;;;;;;;;;;;;;;;15.97;44.27;100208.94;4899520;29;1065;-54
2024/02/08 06:23:26;;;;;;;;;;;;;;;16.37;44.65;100226.16;4890446;29;1086;-55
2024/02/08 06:28:47;;;;;;;;;;;;;;;15.82;45.15;100213.63;4890546;29;1284;-52
2024/02/08 06:31:17;;;;;;;;;;;;;;;15.89;45.29;100219.31;4900735;29;1019;-51
2024/02/08 06:36:58;;;;;;;;;;;;;;;15.66;45.15;100220.13;4888463;29;2090;-52
2024/02/08 06:39:28;;;;;;;;;;;;;;;15.50;44.70;100224.91;4914179;29;1248;-52
2024/02/08 06:42:07;;;;;;;;;;;;;;;16.89;43.46;100230.00;4884249;29;884;-51
2024/02/08 07:39:30;;;;;;;;;;;;;;;16.53;43.92;100230.25;4894292;29;1045;-46
2024/02/08 07:41:40;;;;;;;;;;;;;;;15.94;44.52;100224.25;4897146;29;1530;-48
2024/02/08 07:44:09;;;;;;;;;;;;;;;16.51;44.44;100224.19;4897279;29;1178;-49
2024/02/08 07:46:35;;;;;;;;;;;;;;;16.99;42.78;100217.63;4903219;29;991;-50
2024/02/08 07:49:04;;;;;;;;;;;;;;;16.03;44.86;100219.06;4903216;29;1155;-48
2024/02/08 07:51:33;;;;;;;;;;;;;;;15.86;44.39;100209.78;4903493;29;1054;-50
2024/02/08 07:53:59;;;;;;;;;;;;;;;17.40;42.55;100218.78;4901844;29;2032;-47
2024/02/08 07:58:56;;;;;;;;;;;;;;;18.18;40.85;100212.13;4903471;29;1157;-50
2024/02/08 08:01:21;;;;;;;;;;;;;;;17.99;40.72;100211.91;4902805;29;1146;-48
2024/02/08 08:03:50;;;;;;;;;;;;;;;16.62;43.23;100212.69;4894421;29;2548;-50
2024/02/08 08:06:15;;;;;;;;;;;;;;;16.27;44.16;100219.91;4888797;29;998;-48
2024/02/08 08:08:54;;;;;;;;;;;;;;;17.22;42.83;100209.56;4884382;29;1054;-49
2024/02/08 08:11:25;;;;;;;;;;;;;;;16.99;42.72;100212.31;4890330;29;1177;-50
2024/02/08 08:19:10;;;;;;;;;;;;;;;17.35;42.39;100206.69;4902621;29;937;-48
2024/02/08 08:22:03;;;;;;;;;;;;;;;16.21;44.30;100209.78;4896872;29;994;-46
2024/02/08 08:24:25;;;;;;;;;;;;;;;15.91;44.39;100207.59;4884266;29;1671;-50
2024/02/08 08:27:06;;;;;;;;;;;;;;;18.10;41.22;100210.94;4902809;29;1046;-50
2024/02/08 08:29:43;;;;;;;;;;;;;;;16.56;43.99;100205.25;4902510;29;1044;-49
2024/02/08 08:37:48;;;;;;;;;;;;;;;16.45;44.02;100222.06;4902419;29;1086;-48
2024/02/08 08:40:20;;;;;;;;;;;;;;;15.99;44.67;100215.00;4902781;29;1034;-48
2024/02/08 08:42:50;;;;;;;;;;;;;;;16.92;43.65;100221.75;4899993;29;1115;-49
2024/02/08 08:45:19;;;;;;;;;;;;;;;16.64;43.66;100227.53;4901614;29;1280;-52
2024/02/08 08:47:45;;;;;;;;;;;;;;;16.06;44.74;100217.16;4886005;29;1030;-49
2024/02/08 08:50:20;;;;;;;;;;;;;;;15.88;44.60;100217.63;4891202;29;1118;-50
2024/02/08 08:52:57;;;;;;;;;;;;;;;17.07;43.63;100216.13;4882952;29;1903;-50
2024/02/08 08:55:23;;;;;;;;;;;;;;;16.98;43.21;100209.78;4896064;29;1058;-51
2024/02/08 08:57:59;;;;;;;;;;;;;;;16.11;44.87;100209.69;4901319;29;1387;-49
2024/02/08 09:00:36;;;;;;;;;;;;;;;15.87;44.51;100205.31;4900962;29;1288;-50
2024/02/08 09:03:04;;;;;;;;;;;;;;;17.58;42.39;100203.88;4893867;29;1133;-53
2024/02/08 09:05:36;;;;;;;;;;;;;;;16.44;44.02;100205.28;4892473;29;2720;-49
2024/02/08 09:08:08;;;;;;;;;;;;;;;15.98;44.85;100201.81;4901974;29;1109;-49
2024/02/08 09:10:40;;;;;;;;;;;;;;;17.44;42.64;100204.22;4889314;29;1029;-50
2024/02/08 09:13:09;;;;;;;;;;;;;;;16.79;43.37;100207.81;4900711;29;1980;-48
2024/02/08 09:15:55;;;;;;;;;;;;;;;16.08;44.54;100202.78;4901349;29;1277;-49
2024/02/08 09:18:20;;;;;;;;;;;;;;;15.86;44.66;100204.50;4891334;29;1645;-50
2024/02/08 09:20:59;;;;;;;;;;;;;;;16.08;44.89;100204.63;4891510;29;982;-51
2024/02/08 09:23:26;;;;;;;;;;;;;;;16.70;43.79;100207.59;4900837;29;986;-49
2024/02/08 09:25:53;;;;;;;;;;;;;;;15.97;44.82;100200.13;4901117;29;1014;-50
2024/02/08 09:28:35;;;;;;;;;;;;;;;17.68;42.19;100209.28;4901296;29;1039;-52
2024/02/08 09:31:12;;;;;;;;;;;;;;;16.43;44.08;100206.25;4892484;29;1150;-52
2024/02/08 09:34:01;;;;;;;;;;;;;;;16.02;44.67;100201.47;4900594;29;2550;-46
2024/02/08 09:36:26;;;;;;;;;;;;;;;15.72;44.71;100186.13;4882505;29;1221;-47
2024/02/08 09:38:52;;;;;;;;;;;;;;;17.53;42.81;100189.31;4899310;29;1115;-45
2024/02/08 09:41:24;;;;;;;;;;;;;;;16.54;44.09;100192.09;4900614;29;1368;-53
2024/02/08 09:43:56;;;;;;;;;;;;;;;15.94;44.93;100181.78;4901696;29;1410;-47
2024/02/08 09:49:34;;;;;;;;;;;;;;;16.14;44.69;100186.41;4900376;29;1309;-49
2024/02/08 09:51:56;;;;;;;;;;;;;;;16.72;44.25;100187.06;4897612;29;1289;-47
2024/02/08 09:54:28;;;;;;;;;;;;;;;16.91;43.21;100182.03;4903698;29;1903;-52
2024/02/08 09:57:21;;;;;;;;;;;;;;;16.09;44.85;100179.75;4890340;29;1146;-46
2024/02/08 10:00:07;;;;;;;;;;;;;;;15.86;44.75;100171.81;4900960;29;1065;-49
2024/02/08 10:02:53;;;;;;;;;;;;;;;17.24;42.78;100172.22;4907033;29;1115;-47
2024/02/08 10:05:19;;;;;;;;;;;;;;;16.20;44.80;100168.31;4894306;29;2872;-48
2024/02/08 10:08:05;;;;;;;;;;;;;;;16.14;45.32;100161.66;4886223;29;912;-48
2024/02/08 10:10:33;;;;;;;;;;;;;;;16.75;43.74;100170.03;4901101;29;1046;-49
2024/02/08 10:13:05;;;;;;;;;;;;;;;16.14;44.62;100153.69;4900856;29;1914;-50
2024/02/08 10:15:55;;;;;;;;;;;;;;;17.19;43.32;100159.31;4888468;29;1410;-48
2024/02/08 10:18:33;;;;;;;;;;;;;;;16.82;43.66;100162.38;4890020;29;1108;-51
2024/02/08 10:21:17;;;;;;;;;;;;;;;16.22;44.53;100143.31;4886662;29;1043;-51
2024/02/08 10:23:48;;;;;;;;;;;;;;;16.17;45.12;100145.50;4897645;29;1031;-48
2024/02/08 10:26:22;;;;;;;;;;;;;;;17.17;42.97;100139.16;4905568;29;1472;-48
2024/02/08 10:28:53;;;;;;;;;;;;;;;16.20;44.84;100131.16;4897548;29;1155;-46
2024/02/08 10:31:24;;;;;;;;;;;;;;;15.97;44.49;100129.34;4900990;29;844;-47
2024/02/08 10:33:57;;;;;;;;;;;;;;;17.32;43.20;100124.56;4898698;29;2582;-45
2024/02/08 10:36:30;;;;;;;;;;;;;;;16.32;44.74;100126.63;4894074;29;1082;-50
2024/02/08 10:39:03;;;;;;;;;;;;;;;15.95;45.12;100117.19;4882135;29;1020;-49
2024/02/08 10:41:35;;;;;;;;;;;;;;;17.42;42.53;100110.44;4894066;29;1038;-50
2024/02/08 10:44:05;;;;;;;;;;;;;;;16.17;44.62;100111.00;4900125;29;932;-52
2024/02/08 10:46:42;;;;;;;;;;;;;;;16.02;44.60;100111.28;4887780;29;1045;-48
2024/02/08 10:49:10;;;;;;;;;;;;;;;15.80;44.90;100106.81;4889916;29;1177;-49
2024/02/08 10:51:36;;;;;;;;;;;;;;;16.87;43.94;100109.72;4909462;29;1058;-50
2024/02/08 10:54:05;;;;;;;;;;;;;;;16.84;43.55;100113.50;4890476;29;1939;-48
2024/02/08 10:56:40;;;;;;;;;;;;;;;16.12;45.00;100099.91;4887203;29;1003;-50
2024/02/08 11:01:33;;;;;;;;;;;;;;;17.06;43.92;100093.06;4882061;29;1222;-50
2024/02/08 11:04:00;;;;;;;;;;;;;;;17.13;43.17;100080.13;4891210;29;2560;-49
2024/02/08 11:06:26;;;;;;;;;;;;;;;16.22;44.45;100084.94;4898895;29;1034;-48
2024/02/08 11:09:14;;;;;;;;;;;;;;;15.90;45.11;100075.94;4914329;29;1137;-50
2024/02/08 11:12:06;;;;;;;;;;;;;;;17.79;42.17;100071.78;4916401;29;1103;-48
2024/02/08 11:14:42;;;;;;;;;;;;;;;16.48;44.51;100073.94;4890787;29;1918;-48
2024/02/08 11:17:11;;;;;;;;;;;;;;;16.03;44.75;100056.41;4901509;29;1041;-49
2024/02/08 11:19:39;;;;;;;;;;;;;;;16.16;43.90;100057.06;4898178;29;1030;-44
2024/02/08 11:22:18;;;;;;;;;;;;;;;16.00;44.20;100061.94;4897117;29;1010;-49
2024/02/08 11:24:57;;;;;;;;;;;;;;;17.42;43.01;100062.59;4903033;29;1022;-47
2024/02/08 11:27:29;;;;;;;;;;;;;;;16.15;45.16;100060.69;4903726;29;1019;-50
2024/02/08 11:29:57;;;;;;;;;;;;;;;15.88;45.15;100058.47;4890648;29;1069;-51
2024/02/08 11:32:24;;;;;;;;;;;;;;;15.72;44.78;100054.41;4903050;29;947;-46
2024/02/08 11:34:54;;;;;;;;;;;;;;;16.48;45.04;100050.06;4894908;29;2548;-48
2024/02/08 11:37:27;;;;;;;;;;;;;;;17.12;43.18;100049.19;4904218;29;1091;-44
2024/02/08 11:40:00;;;;;;;;;;;;;;;16.15;44.83;100051.88;4903644;29;999;-45
2024/02/08 11:42:30;;;;;;;;;;;;;;;15.74;45.53;100048.97;4897975;29;1057;-46
2024/02/08 11:44:57;;;;;;;;;;;;;;;16.48;44.88;100039.44;4918466;29;1309;-46
2024/02/08 11:47:23;;;;;;;;;;;;;;;16.75;44.03;100037.22;4917424;29;1157;-48
2024/02/08 11:50:00;;;;;;;;;;;;;;;16.01;45.39;100039.78;4908128;29;1134;-50
2024/02/08 11:52:26;;;;;;;;;;;;;;;15.77;45.39;100041.63;4889731;29;1062;-47
2024/02/08 11:55:05;;;;;;;;;;;;;;;17.56;42.76;100032.97;4901346;29;1967;-46
2024/02/08 11:57:37;;;;;;;;;;;;;;;16.47;44.48;100028.94;4902099;29;1046;-48
2024/02/08 12:00:15;;;;;;;;;;;;;;;15.99;45.12;100029.28;4886378;29;1040;-51
2024/02/08 12:02:47;;;;;;;;;;;;;;;15.81;44.93;100030.75;4903115;29;1181;-50
2024/02/08 12:05:16;;;;;;;;;;;;;;;16.43;45.02;100038.16;4890477;29;2469;-49
2024/02/08 12:07:45;;;;;;;;;;;;;;;16.92;43.64;100022.50;4892171;29;843;-50
2024/02/08 12:10:15;;;;;;;;;;;;;;;16.11;44.82;100024.78;4901521;29;1334;-48
2024/02/08 12:12:42;;;;;;;;;;;;;;;15.81;45.29;100022.81;4903208;29;1894;-47
2024/02/08 12:15:08;;;;;;;;;;;;;;;16.46;44.86;100025.47;4902440;29;1073;-46
2024/02/08 12:17:33;;;;;;;;;;;;;;;17.16;43.14;100020.53;4902853;29;998;-47
2024/02/08 12:20:01;;;;;;;;;;;;;;;16.17;44.97;100026.06;4897321;29;1086;-49
2024/02/08 12:22:29;;;;;;;;;;;;;;;15.82;45.44;100022.69;4884617;29;1168;-50
2024/02/08 12:25:02;;;;;;;;;;;;;;;15.71;45.30;100028.88;4896878;29;1063;-50
2024/02/08 12:27:28;;;;;;;;;;;;;;;16.88;44.20;100019.25;4884785;29;1067;-48
2024/02/08 12:29:56;;;;;;;;;;;;;;;17.07;43.37;100014.16;4910264;29;1170;-50
2024/02/08 12:32:27;;;;;;;;;;;;;;;16.11;45.03;100019.50;4911055;29;1098;-49
2024/02/08 12:34:56;;;;;;;;;;;;;;;15.83;45.54;100012.91;4893606;29;2638;-49
2024/02/08 12:37:29;;;;;;;;;;;;;;;15.70;45.07;100015.72;4902687;29;1065;-48
2024/02/08 12:39:55;;;;;;;;;;;;;;;17.61;42.47;100020.13;4913213;29;1138;-49
2024/02/08 12:42:23;;;;;;;;;;;;;;;16.50;44.65;100015.41;4893789;29;1124;-48
2024/02/08 12:44:50;;;;;;;;;;;;;;;16.07;45.04;100022.50;4890143;29;1109;-50
2024/02/08 12:47:18;;;;;;;;;;;;;;;15.88;44.81;100022.16;4891072;29;1053;-49
2024/02/08 12:49:48;;;;;;;;;;;;;;;15.73;44.90;100015.47;4900871;29;1131;-51
2024/02/08 12:52:15;;;;;;;;;;;;;;;15.62;44.91;100005.72;4889758;29;1034;-53
2024/02/08 12:54:41;;;;;;;;;;;;;;;16.91;43.85;100004.88;4913427;29;1910;-54
2024/02/08 12:57:13;;;;;;;;;;;;;;;16.18;45.29;100025.13;4886589;29;1086;-52
2024/02/08 12:59:42;;;;;;;;;;;;;;;15.86;44.98;100005.56;4899840;29;1034;-50
2024/02/08 13:02:17;;;;;;;;;;;;;;;15.69;45.62;100006.06;4892339;29;1123;-52
2024/02/08 13:04:48;;;;;;;;;;;;;;;16.69;44.07;99996.09;4912673;29;2597;-49
2024/02/08 13:07:17;;;;;;;;;;;;;;;15.92;45.37;100004.19;4891969;29;1105;-51
2024/02/08 13:09:46;;;;;;;;;;;;;;;15.64;45.51;99991.41;4889944;29;1160;-51
2024/02/08 13:12:18;;;;;;;;;;;;;;;17.41;42.58;99991.78;4889663;29;1181;-48
2024/02/08 13:14:49;;;;;;;;;;;;;;;16.13;45.02;99985.69;4901913;29;1981;-50
2024/02/08 13:17:18;;;;;;;;;;;;;;;15.87;45.29;99995.78;4901724;29;1097;-50
2024/02/08 13:19:54;;;;;;;;;;;;;;;15.62;45.59;99993.31;4901670;29;1057;-53
2024/02/08 13:22:26;;;;;;;;;;;;;;;15.48;44.91;99988.31;4894040;29;1034;-50
2024/02/08 13:24:52;;;;;;;;;;;;;;;15.51;45.04;99988.91;4900037;29;1116;-51
2024/02/08 13:27:24;;;;;;;;;;;;;;;17.40;42.81;99993.59;4900507;29;1219;-50
2024/02/08 13:29:51;;;;;;;;;;;;;;;16.06;45.38;99986.34;4891890;29;1027;-48
2024/02/08 13:32:16;;;;;;;;;;;;;;;15.81;44.95;99985.69;4888329;29;1031;-48
2024/02/08 13:34:42;;;;;;;;;;;;;;;15.73;45.87;99983.66;4892729;29;2657;-51
2024/02/08 13:37:15;;;;;;;;;;;;;;;17.20;42.77;99984.75;4898012;29;1014;-53
2024/02/08 13:39:43;;;;;;;;;;;;;;;16.06;44.98;99981.88;4893329;29;1232;-54
2024/02/08 13:42:12;;;;;;;;;;;;;;;15.74;45.44;99985.34;4901048;29;1136;-49
2024/02/08 13:44:44;;;;;;;;;;;;;;;16.94;43.82;99978.06;4894446;29;1347;-50
2024/02/08 13:47:10;;;;;;;;;;;;;;;16.59;44.28;99977.47;4899724;29;1186;-51
2024/02/08 13:49:35;;;;;;;;;;;;;;;16.06;44.83;99981.03;4900358;29;1189;-50
2024/02/08 13:52:06;;;;;;;;;;;;;;;15.74;45.25;99980.03;4901101;29;1283;-53
2024/02/08 13:54:35;;;;;;;;;;;;;;;15.65;44.70;99984.28;4901436;29;1976;-50
2024/02/08 13:57:01;;;;;;;;;;;;;;;17.29;43.10;99980.41;4901033;29;932;-50
2024/02/08 13:59:27;;;;;;;;;;;;;;;16.37;44.59;99976.63;4886531;29;1095;-53
2024/02/08 14:01:52;;;;;;;;;;;;;;;15.84;45.39;99986.28;4891369;29;1067;-51
2024/02/08 14:04:22;;;;;;;;;;;;;;;17.28;42.45;99986.72;4895023;29;2666;-51
2024/02/08 14:06:56;;;;;;;;;;;;;;;16.21;44.51;99985.06;4896989;29;1333;-51
2024/02/08 14:09:25;;;;;;;;;;;;;;;15.78;45.37;99984.13;4900113;29;1046;-48
2024/02/08 14:11:55;;;;;;;;;;;;;;;15.58;45.12;99985.75;4901011;29;1197;-53
2024/02/08 14:14:30;;;;;;;;;;;;;;;16.44;44.54;99984.94;4900260;29;1918;-48
2024/02/08 14:16:56;;;;;;;;;;;;;;;16.82;43.70;99987.91;4901023;29;1438;-48
2024/02/08 14:19:33;;;;;;;;;;;;;;;16.01;44.96;99992.88;4900085;29;1042;-48
2024/02/08 14:22:08;;;;;;;;;;;;;;;15.77;44.79;99995.69;4897057;29;1227;-53
2024/02/08 14:24:38;;;;;;;;;;;;;;;15.64;45.46;99991.41;4900127;29;1093;-50
2024/02/08 14:27:06;;;;;;;;;;;;;;;17.12;42.93;99996.88;4900794;29;1089;-51
2024/02/08 14:29:38;;;;;;;;;;;;;;;16.01;45.25;99997.34;4900935;29;1390;-47
2024/02/08 14:32:04;;;;;;;;;;;;;;;15.72;45.26;99990.75;4895359;29;1017;-50
2024/02/08 14:34:36;;;;;;;;;;;;;;;15.54;44.98;99996.59;4888415;29;2487;-49
2024/02/08 14:37:03;;;;;;;;;;;;;;;17.06;43.56;99992.09;4900997;29;1422;-50
2024/02/08 14:39:32;;;;;;;;;;;;;;;16.26;44.83;99988.19;4902922;29;1370;-47
2024/02/08 14:42:02;;;;;;;;;;;;;;;15.88;45.33;99987.69;4904608;29;1387;-49
2024/02/08 14:44:40;;;;;;;;;;;;;;;17.19;43.15;99989.22;4899440;29;1149;-52
2024/02/08 14:47:06;;;;;;;;;;;;;;;16.47;44.15;99983.81;4904582;29;1110;-50
2024/02/08 14:49:31;;;;;;;;;;;;;;;15.97;44.85;99988.75;4904049;29;1530;-48
2024/02/08 14:52:14;;;;;;;;;;;;;;;15.75;45.27;99994.97;4904622;29;1221;-48
2024/02/08 14:54:40;;;;;;;;;;;;;;;17.28;42.69;99990.22;4895876;29;1920;-51
2024/02/08 14:57:05;;;;;;;;;;;;;;;16.20;44.68;99988.66;4901299;29;1421;-51
2024/02/08 14:59:41;;;;;;;;;;;;;;;15.78;44.81;99992.91;4899987;29;1465;-48
2024/02/08 15:02:13;;;;;;;;;;;;;;;15.61;44.73;99989.00;4903995;29;998;-54
2024/02/08 15:04:45;;;;;;;;;;;;;;;17.53;42.30;99988.06;4896715;29;2578;-49
2024/02/08 15:07:33;;;;;;;;;;;;;;;16.18;44.69;99990.63;4903127;29;1026;-47
2024/02/08 15:09:58;;;;;;;;;;;;;;;15.82;45.02;99992.66;4884798;29;1387;-48
2024/02/08 15:12:32;;;;;;;;;;;;;;;15.73;45.11;99997.75;4898050;29;1126;-51
2024/02/08 15:15:03;;;;;;;;;;;;;;;17.09;43.04;99998.97;4903346;29;1907;-50